Time;durP1;ratioP1;P1;durP2;ratioP2;P2;SDS_P1;SDS_P2;PMS_P1;PMS_P2;Temp;Humidity;BMP_temperature;BMP_pressure;BME280_temperature;BME280_humidity;BME280_pressure;Samples;Min_cycle;Max_cycle;Signal;HPM_P1;HPM_P2
2021/09/19 00:02:20;;;;;;;9.45;2.95;;;;;;;;;;5110192;28;20023;-60
2021/09/19 00:04:46;;;;;;;7.38;2.83;;;;;;;;;;5110915;28;20707;-60
2021/09/19 00:07:12;;;;;;;5.40;2.90;;;;;;;;;;5112539;28;20079;-60
2021/09/19 00:09:38;;;;;;;6.65;3.30;;;;;;;;;;5111987;28;20391;-60
2021/09/19 00:12:04;;;;;;;10.55;3.15;;;;;;;;;;5109527;28;20027;-60
2021/09/19 00:14:30;;;;;;;7.30;3.25;;;;;;;;;;5110590;28;20535;-60
2021/09/19 00:16:56;;;;;;;4.60;3.00;;;;;;;;;;5110151;28;20027;-60
2021/09/19 00:19:22;;;;;;;11.00;3.33;;;;;;;;;;5109742;28;20414;-60
2021/09/19 00:21:48;;;;;;;7.20;3.33;;;;;;;;;;5113682;28;20028;-60
2021/09/19 00:24:14;;;;;;;4.82;2.80;;;;;;;;;;5109776;28;20028;-60
2021/09/19 00:26:40;;;;;;;6.15;3.08;;;;;;;;;;5110286;28;20387;-60
2021/09/19 00:29:06;;;;;;;4.78;2.35;;;;;;;;;;5109751;28;20031;-60
2021/09/19 00:31:32;;;;;;;5.00;2.70;;;;;;;;;;5109841;28;20032;-59
2021/09/19 00:33:58;;;;;;;6.35;2.58;;;;;;;;;;5113344;28;20463;-60
2021/09/19 00:36:24;;;;;;;5.55;2.92;;;;;;;;;;5110705;28;20035;-60
2021/09/19 00:38:50;;;;;;;4.32;2.55;;;;;;;;;;5109961;28;20046;-60
2021/09/19 00:41:16;;;;;;;6.45;2.90;;;;;;;;;;5109727;28;20047;-60
2021/09/19 00:43:42;;;;;;;4.90;2.53;;;;;;;;;;5109746;28;20065;-60
2021/09/19 00:46:08;;;;;;;5.93;2.90;;;;;;;;;;5112121;28;20023;-60
2021/09/19 00:48:34;;;;;;;6.38;3.05;;;;;;;;;;5110999;28;20458;-60
2021/09/19 00:51:02;;;;;;;4.68;2.58;;;;;;;;;;5109877;28;20486;-60
2021/09/19 00:53:28;;;;;;;;;;;;;;;;;;5110123;28;20027;-60
2021/09/19 00:55:57;;;;;;;4.75;2.22;;;;;;;;;;5110018;28;20270;-60
2021/09/19 00:58:24;;;;;;;6.38;2.70;;;;;;;;;;5093345;28;20024;-60
2021/09/19 01:00:50;;;;;;;6.13;2.40;;;;;;;;;;5112923;28;20042;-60
2021/09/19 01:03:16;;;;;;;4.18;2.17;;;;;;;;;;5103799;28;20118;-60
2021/09/19 01:05:44;;;;;;;6.22;3.00;;;;;;;;;;5109613;28;20016;-60
2021/09/19 01:08:11;;;;;;;7.60;2.78;;;;;;;;;;5109372;28;20047;-60
2021/09/19 01:10:37;;;;;;;7.60;3.13;;;;;;;;;;5109211;28;20057;-60
2021/09/19 01:13:04;;;;;;;6.80;3.13;;;;;;;;;;5111580;28;20507;-60
2021/09/19 01:15:30;;;;;;;5.60;2.90;;;;;;;;;;5110565;28;20034;-60
2021/09/19 01:17:58;;;;;;;8.30;3.20;;;;;;;;;;5109246;28;20030;-60
2021/09/19 01:20:25;;;;;;;8.82;3.40;;;;;;;;;;5108651;28;20062;-60
2021/09/19 01:22:59;;;;;;;7.43;3.42;;;;;;;;;;5108313;28;20031;-60
2021/09/19 01:25:25;;;;;;;10.80;3.50;;;;;;;;;;5093253;28;20099;-60
2021/09/19 01:27:51;;;;;;;6.45;3.05;;;;;;;;;;5108234;28;20047;-60
2021/09/19 01:30:17;;;;;;;3.83;2.70;;;;;;;;;;5108543;28;20043;-60
2021/09/19 01:32:44;;;;;;;5.57;2.85;;;;;;;;;;5108898;28;20027;-60
2021/09/19 01:35:10;;;;;;;4.63;2.97;;;;;;;;;;5109157;28;20027;-60
2021/09/19 01:37:37;;;;;;;5.50;3.05;;;;;;;;;;5109075;28;20116;-60
2021/09/19 01:40:04;;;;;;;8.10;2.90;;;;;;;;;;5110830;28;20035;-60
2021/09/19 01:42:30;;;;;;;6.03;3.10;;;;;;;;;;5110098;28;20467;-60
2021/09/19 01:44:56;;;;;;;6.18;3.10;;;;;;;;;;5108868;28;20038;-60
2021/09/19 01:47:22;;;;;;;7.20;3.08;;;;;;;;;;5108777;28;20031;-60
2021/09/19 01:49:48;;;;;;;8.23;3.35;;;;;;;;;;5108940;28;20027;-60
2021/09/19 01:52:18;;;;;;;8.48;3.75;;;;;;;;;;5109919;28;20028;-60
2021/09/19 01:54:44;;;;;;;9.90;3.85;;;;;;;;;;5110969;28;20028;-60
2021/09/19 01:57:10;;;;;;;5.72;3.42;;;;;;;;;;5108900;28;20027;-60
2021/09/19 01:59:36;;;;;;;6.00;3.13;;;;;;;;;;5108951;28;20034;-60
2021/09/19 02:02:02;;;;;;;5.07;3.30;;;;;;;;;;5108339;28;20028;-60
2021/09/19 02:04:28;;;;;;;8.35;3.08;;;;;;;;;;5108689;28;20066;-60
2021/09/19 02:06:54;;;;;;;6.97;3.22;;;;;;;;;;5111110;28;20028;-60
2021/09/19 02:09:20;;;;;;;7.60;3.70;;;;;;;;;;5108429;28;20035;-60
2021/09/19 02:11:46;;;;;;;5.70;3.38;;;;;;;;;;5108524;28;20027;-60
2021/09/19 02:14:12;;;;;;;8.95;3.40;;;;;;;;;;5108733;28;20495;-60
2021/09/19 02:16:38;;;;;;;4.95;2.85;;;;;;;;;;5108462;28;20099;-60
2021/09/19 02:19:04;;;;;;;5.15;3.17;;;;;;;;;;5110378;28;20023;-60
2021/09/19 02:21:30;;;;;;;6.45;3.58;;;;;;;;;;5108890;28;20035;-60
2021/09/19 02:23:56;;;;;;;4.95;3.20;;;;;;;;;;5108268;28;20055;-60
2021/09/19 02:26:22;;;;;;;5.50;3.47;;;;;;;;;;5108606;28;20024;-60
2021/09/19 02:28:48;;;;;;;6.75;3.60;;;;;;;;;;5108192;28;20503;-60
2021/09/19 02:31:14;;;;;;;7.68;3.67;;;;;;;;;;5110157;28;20056;-60
2021/09/19 02:33:40;;;;;;;6.40;3.92;;;;;;;;;;5109712;28;20038;-60
2021/09/19 02:36:06;;;;;;;7.75;3.72;;;;;;;;;;5111627;28;20459;-60
2021/09/19 02:38:32;;;;;;;6.28;3.00;;;;;;;;;;5112155;28;20076;-60
2021/09/19 02:40:58;;;;;;;9.02;3.28;;;;;;;;;;5112192;28;20051;-60
2021/09/19 02:43:24;;;;;;;9.20;3.90;;;;;;;;;;5096503;28;20463;-60
2021/09/19 02:45:51;;;;;;;5.78;3.38;;;;;;;;;;5115390;28;20127;-60
2021/09/19 02:48:17;;;;;;;6.90;3.20;;;;;;;;;;5112201;28;20028;-59
2021/09/19 02:50:43;;;;;;;9.25;3.88;;;;;;;;;;5111887;28;20036;-60
2021/09/19 02:53:09;;;;;;;8.10;3.78;;;;;;;;;;5111908;28;20047;-60
2021/09/19 02:55:35;;;;;;;9.00;4.28;;;;;;;;;;5112338;28;20024;-60
2021/09/19 02:58:01;;;;;;;8.35;4.07;;;;;;;;;;5113480;28;20065;-60
2021/09/19 03:00:27;;;;;;;6.75;3.78;;;;;;;;;;5112839;28;20510;-60
2021/09/19 03:02:54;;;;;;;10.15;4.10;;;;;;;;;;5111365;28;20168;-60
2021/09/19 03:05:20;;;;;;;7.65;3.83;;;;;;;;;;5111783;28;20458;-60
2021/09/19 03:07:47;;;;;;;8.18;4.68;;;;;;;;;;5111968;28;20459;-60
2021/09/19 03:10:14;;;;;;;9.55;4.13;;;;;;;;;;5113342;28;20043;-60
2021/09/19 03:12:40;;;;;;;7.70;3.78;;;;;;;;;;5113575;28;20565;-60
2021/09/19 03:15:07;;;;;;;7.15;3.58;;;;;;;;;;5111846;28;20136;-60
2021/09/19 03:17:33;;;;;;;5.32;3.15;;;;;;;;;;5111688;28;20039;-60
2021/09/19 03:19:59;;;;;;;9.35;3.65;;;;;;;;;;5111552;28;20067;-60
2021/09/19 03:22:25;;;;;;;8.80;3.83;;;;;;;;;;5111350;28;20050;-60
2021/09/19 03:24:51;;;;;;;6.72;3.85;;;;;;;;;;5113647;28;20031;-60
2021/09/19 03:27:17;;;;;;;5.45;3.58;;;;;;;;;;5111404;28;20040;-60
2021/09/19 03:29:43;;;;;;;6.88;4.15;;;;;;;;;;5111310;28;20038;-60
2021/09/19 03:32:09;;;;;;;5.70;3.88;;;;;;;;;;5111269;28;20031;-60
2021/09/19 03:34:35;;;;;;;5.10;3.38;;;;;;;;;;5111133;28;20498;-60
2021/09/19 03:37:02;;;;;;;7.05;3.75;;;;;;;;;;5113577;27;20027;-60
2021/09/19 03:39:28;;;;;;;7.95;3.90;;;;;;;;;;5113698;28;20092;-60
2021/09/19 03:41:54;;;;;;;8.90;3.90;;;;;;;;;;5111312;28;20032;-60
2021/09/19 03:44:20;;;;;;;6.78;4.03;;;;;;;;;;5111153;28;20096;-60
2021/09/19 03:46:46;;;;;;;8.18;4.63;;;;;;;;;;5110003;28;20042;-60
2021/09/19 03:49:12;;;;;;;7.20;4.00;;;;;;;;;;5112488;28;20572;-60
2021/09/19 03:51:38;;;;;;;6.22;3.53;;;;;;;;;;5112659;28;20039;-60
2021/09/19 03:54:04;;;;;;;7.30;3.80;;;;;;;;;;5110961;28;20019;-60
2021/09/19 03:56:30;;;;;;;7.45;3.28;;;;;;;;;;5110542;28;20046;-60
2021/09/19 03:58:56;;;;;;;6.25;3.10;;;;;;;;;;5110780;28;20028;-60
2021/09/19 04:01:23;;;;;;;8.05;3.78;;;;;;;;;;5111490;28;20075;-60
2021/09/19 04:03:49;;;;;;;9.73;3.63;;;;;;;;;;5113521;28;20394;-60
2021/09/19 04:06:15;;;;;;;8.00;3.60;;;;;;;;;;5110775;28;20051;-60
2021/09/19 04:08:41;;;;;;;6.57;3.22;;;;;;;;;;5110795;28;20499;-60
2021/09/19 04:11:07;;;;;;;9.02;3.72;;;;;;;;;;5110478;28;20036;-60
2021/09/19 04:13:33;;;;;;;5.97;3.78;;;;;;;;;;5110149;28;20032;-60
2021/09/19 04:16:00;;;;;;;6.32;3.80;;;;;;;;;;5113612;28;20032;-60
2021/09/19 04:18:26;;;;;;;9.63;4.25;;;;;;;;;;5108276;28;20137;-60
2021/09/19 04:20:52;;;;;;;9.55;4.55;;;;;;;;;;5099494;28;20507;-60
2021/09/19 04:23:18;;;;;;;10.30;4.90;;;;;;;;;;5102444;28;20066;-60
2021/09/19 04:25:44;;;;;;;5.97;3.95;;;;;;;;;;5110211;28;20028;-60
2021/09/19 04:28:11;;;;;;;8.50;3.90;;;;;;;;;;5107363;28;20101;-61
2021/09/19 04:30:37;;;;;;;8.85;4.40;;;;;;;;;;5103759;28;20114;-61
2021/09/19 04:33:03;;;;;;;7.60;4.13;;;;;;;;;;5104176;28;20467;-61
2021/09/19 04:35:28;;;;;;;8.27;4.47;;;;;;;;;;5103203;28;20049;-61
2021/09/19 04:37:54;;;;;;;12.45;4.80;;;;;;;;;;5106716;28;20027;-62
2021/09/19 04:40:21;;;;;;;9.60;4.50;;;;;;;;;;5103578;28;20107;-61
2021/09/19 04:42:47;;;;;;;7.32;4.20;;;;;;;;;;5100778;28;20379;-68
2021/09/19 04:45:13;;;;;;;6.28;3.53;;;;;;;;;;5103694;28;20049;-69
2021/09/19 04:47:39;;;;;;;6.85;3.38;;;;;;;;;;5103542;28;20028;-69
2021/09/19 04:50:06;;;;;;;10.27;4.00;;;;;;;;;;5103207;28;20399;-68
2021/09/19 04:52:32;;;;;;;23.08;4.45;;;;;;;;;;5103439;28;20020;-68
2021/09/19 04:54:58;;;;;;;13.80;4.53;;;;;;;;;;5101888;28;20047;-69
2021/09/19 04:57:24;;;;;;;11.95;3.80;;;;;;;;;;5104621;28;20120;-68
2021/09/19 04:59:50;;;;;;;6.20;3.47;;;;;;;;;;5102143;28;20485;-69
2021/09/19 05:02:16;;;;;;;5.95;3.78;;;;;;;;;;5103850;28;20027;-68
2021/09/19 05:04:42;;;;;;;5.93;3.78;;;;;;;;;;5101843;28;20418;-69
2021/09/19 05:07:08;;;;;;;4.47;3.28;;;;;;;;;;5103177;28;20077;-68
2021/09/19 05:09:34;;;;;;;5.60;3.83;;;;;;;;;;5103542;28;20035;-69
2021/09/19 05:12:00;;;;;;;11.10;3.80;;;;;;;;;;5103434;28;20024;-69
2021/09/19 05:14:26;;;;;;;6.60;3.65;;;;;;;;;;5100881;28;20037;-69
2021/09/19 05:16:52;;;;;;;6.68;3.70;;;;;;;;;;5102138;28;20032;-68
2021/09/19 05:19:18;;;;;;;9.30;3.83;;;;;;;;;;5102696;28;20020;-67
2021/09/19 05:21:44;;;;;;;8.85;3.45;;;;;;;;;;5103517;28;20564;-67
2021/09/19 05:24:10;;;;;;;10.60;3.60;;;;;;;;;;5109153;28;20435;-67
2021/09/19 05:26:36;;;;;;;7.47;3.70;;;;;;;;;;5109119;28;20051;-68
2021/09/19 05:29:03;;;;;;;9.02;3.90;;;;;;;;;;5108348;28;20036;-67
2021/09/19 05:31:30;;;;;;;9.63;4.18;;;;;;;;;;5109094;28;20062;-67
2021/09/19 05:33:56;;;;;;;17.15;4.65;;;;;;;;;;5112804;28;20018;-69
2021/09/19 05:36:22;;;;;;;14.02;4.40;;;;;;;;;;5110331;28;20165;-69
2021/09/19 05:38:48;;;;;;;10.63;4.13;;;;;;;;;;5107943;28;20068;-67
2021/09/19 05:41:14;;;;;;;7.97;3.35;;;;;;;;;;5108628;28;20621;-70
2021/09/19 05:43:40;;;;;;;7.18;2.88;;;;;;;;;;5108726;28;20031;-69
2021/09/19 05:46:06;;;;;;;9.85;3.50;;;;;;;;;;5110604;28;20027;-69
2021/09/19 05:48:32;;;;;;;7.20;3.97;;;;;;;;;;5109907;28;20015;-72
2021/09/19 05:50:58;;;;;;;5.57;3.38;;;;;;;;;;5108052;28;20046;-69
2021/09/19 05:53:24;;;;;;;7.22;3.80;;;;;;;;;;5107945;28;20030;-66
2021/09/19 05:55:50;;;;;;;8.25;3.33;;;;;;;;;;5108143;28;20059;-68
2021/09/19 05:58:16;;;;;;;6.40;2.53;;;;;;;;;;5109737;28;20067;-66
2021/09/19 06:00:42;;;;;;;4.78;2.80;;;;;;;;;;5110535;28;20025;-66
2021/09/19 06:03:08;;;;;;;5.25;2.70;;;;;;;;;;5108649;28;20549;-66
2021/09/19 06:05:34;;;;;;;9.70;3.20;;;;;;;;;;5108772;28;20028;-67
2021/09/19 06:08:00;;;;;;;8.82;2.85;;;;;;;;;;5107589;28;20063;-65
2021/09/19 06:10:26;;;;;;;5.00;3.13;;;;;;;;;;5110204;28;20038;-65
2021/09/19 06:12:52;;;;;;;9.27;3.85;;;;;;;;;;5110712;28;20394;-65
2021/09/19 06:15:18;;;;;;;8.45;3.80;;;;;;;;;;5109705;28;20034;-65
2021/09/19 06:17:44;;;;;;;9.55;3.45;;;;;;;;;;5099413;28;20035;-67
2021/09/19 06:20:10;;;;;;;6.72;3.30;;;;;;;;;;5097584;28;20064;-64
2021/09/19 06:22:36;;;;;;;10.88;3.33;;;;;;;;;;5096240;28;20028;-64
2021/09/19 06:25:03;;;;;;;8.75;3.38;;;;;;;;;;5113471;28;20554;-64
2021/09/19 06:27:29;;;;;;;9.20;3.42;;;;;;;;;;5107012;28;20071;-64
2021/09/19 06:29:54;;;;;;;5.15;2.85;;;;;;;;;;5107529;28;20466;-64
2021/09/19 06:32:20;;;;;;;4.82;2.78;;;;;;;;;;5111505;28;20173;-66
2021/09/19 06:34:46;;;;;;;4.65;2.60;;;;;;;;;;5112597;28;20039;-67
2021/09/19 06:37:12;;;;;;;8.02;3.90;;;;;;;;;;5096862;28;20460;-68
2021/09/19 06:39:38;;;;;;;7.35;3.60;;;;;;;;;;5113109;28;20108;-67
2021/09/19 06:42:04;;;;;;;11.73;3.90;;;;;;;;;;5107190;28;20030;-65
2021/09/19 06:44:30;;;;;;;6.38;3.58;;;;;;;;;;5112079;28;20394;-64
2021/09/19 06:46:56;;;;;;;7.07;3.15;;;;;;;;;;5104315;28;20581;-67
2021/09/19 06:49:23;;;;;;;9.43;3.00;;;;;;;;;;5112102;28;20103;-67
2021/09/19 06:51:49;;;;;;;4.88;2.55;;;;;;;;;;5114087;28;20036;-67
2021/09/19 06:54:15;;;;;;;6.15;2.13;;;;;;;;;;5109999;28;20046;-67
2021/09/19 06:56:41;;;;;;;2.30;1.45;;;;;;;;;;5108499;28;20027;-67
2021/09/19 06:59:07;;;;;;;5.30;1.80;;;;;;;;;;5099648;28;20038;-66
2021/09/19 07:01:33;;;;;;;4.05;2.15;;;;;;;;;;5094443;28;20062;-68
2021/09/19 07:03:59;;;;;;;4.32;2.60;;;;;;;;;;5114625;28;20052;-68
2021/09/19 07:06:25;;;;;;;6.57;2.78;;;;;;;;;;5111962;28;20123;-67
2021/09/19 07:08:51;;;;;;;8.90;3.00;;;;;;;;;;5102721;28;20121;-68
2021/09/19 07:11:17;;;;;;;4.65;2.70;;;;;;;;;;5096952;28;20036;-68
2021/09/19 07:13:43;;;;;;;6.53;2.80;;;;;;;;;;5095069;28;20026;-66
2021/09/19 07:16:09;;;;;;;4.05;2.63;;;;;;;;;;5100789;28;20024;-67
2021/09/19 07:18:35;;;;;;;3.97;2.00;;;;;;;;;;5098864;28;20099;-66
2021/09/19 07:21:01;;;;;;;4.10;1.95;;;;;;;;;;5104426;28;20055;-66
2021/09/19 07:23:27;;;;;;;4.40;2.22;;;;;;;;;;5099572;28;20272;-66
2021/09/19 07:25:53;;;;;;;5.38;3.00;;;;;;;;;;5094107;28;20078;-66
2021/09/19 07:28:20;;;;;;;5.43;2.20;;;;;;;;;;5104333;28;20469;-66
2021/09/19 07:30:46;;;;;;;5.40;1.85;;;;;;;;;;5112662;28;20036;-66
2021/09/19 07:33:12;;;;;;;2.65;1.70;;;;;;;;;;5110878;28;20386;-65
2021/09/19 07:35:38;;;;;;;2.45;1.35;;;;;;;;;;5106468;28;20036;-66
2021/09/19 07:38:05;;;;;;;5.60;1.42;;;;;;;;;;5100241;28;20059;-66
2021/09/19 07:40:31;;;;;;;2.10;1.48;;;;;;;;;;5111391;28;20035;-69
2021/09/19 07:42:59;;;;;;;1.33;0.85;;;;;;;;;;5114401;28;20102;-66
2021/09/19 07:45:26;;;;;;;2.10;1.30;;;;;;;;;;5111576;28;20024;-66
2021/09/19 07:47:52;;;;;;;3.10;1.33;;;;;;;;;;5110952;28;20031;-68
2021/09/19 07:50:18;;;;;;;2.88;1.50;;;;;;;;;;5110336;28;20616;-68
2021/09/19 07:52:45;;;;;;;1.52;1.20;;;;;;;;;;5110814;28;20201;-66
2021/09/19 07:55:17;;;;;;;3.88;1.55;;;;;;;;;;5112141;28;20028;-66
2021/09/19 07:57:43;;;;;;;3.60;1.35;;;;;;;;;;5112828;28;20016;-69
2021/09/19 08:00:10;;;;;;;3.28;2.15;;;;;;;;;;5110890;28;20027;-66
2021/09/19 08:02:36;;;;;;;4.18;1.80;;;;;;;;;;5104601;28;20024;-66
2021/09/19 08:05:02;;;;;;;3.38;2.00;;;;;;;;;;5110653;28;20034;-66
2021/09/19 08:07:28;;;;;;;3.10;1.90;;;;;;;;;;5110520;28;20486;-66
2021/09/19 08:09:53;;;;;;;6.40;2.10;;;;;;;;;;5113425;28;20028;-68
2021/09/19 08:12:20;;;;;;;5.93;1.98;;;;;;;;;;5110445;28;20031;-66
2021/09/19 08:14:46;;;;;;;5.25;2.20;;;;;;;;;;5110392;28;20123;-66
2021/09/19 08:17:12;;;;;;;2.85;1.90;;;;;;;;;;5110427;28;20062;-66
2021/09/19 08:19:38;;;;;;;3.83;1.80;;;;;;;;;;5110669;28;20081;-66
2021/09/19 08:22:04;;;;;;;6.35;1.80;;;;;;;;;;5112332;28;20467;-65
2021/09/19 08:24:30;;;;;;;5.07;2.17;;;;;;;;;;5097129;28;20016;-66
2021/09/19 08:26:56;;;;;;;3.58;2.00;;;;;;;;;;5106338;28;20080;-66
2021/09/19 08:29:22;;;;;;;3.50;2.17;;;;;;;;;;5110327;28;20511;-68
2021/09/19 08:31:49;;;;;;;4.28;2.10;;;;;;;;;;5110801;28;20039;-67
2021/09/19 08:34:15;;;;;;;5.43;2.10;;;;;;;;;;5111291;28;20016;-68
2021/09/19 08:36:41;;;;;;;4.60;2.15;;;;;;;;;;5110208;28;20111;-66
2021/09/19 08:39:08;;;;;;;6.32;2.03;;;;;;;;;;5110147;28;20055;-66
2021/09/19 08:41:34;;;;;;;6.40;2.03;;;;;;;;;;5110074;28;20038;-66
2021/09/19 08:44:02;;;;;;;3.53;1.70;;;;;;;;;;5110088;28;20492;-67
2021/09/19 08:46:29;;;;;;;5.97;2.55;;;;;;;;;;5109799;28;20083;-66
2021/09/19 08:48:55;;;;;;;11.02;6.18;;;;;;;;;;5113258;27;20037;-66
2021/09/19 08:51:21;;;;;;;9.02;4.75;;;;;;;;;;5109493;28;20118;-66
2021/09/19 08:53:47;;;;;;;7.60;3.45;;;;;;;;;;5109875;28;20514;-66
2021/09/19 08:56:21;;;;;;;8.00;3.75;;;;;;;;;;5109432;28;20032;-66
2021/09/19 08:58:47;;;;;;;16.77;6.20;;;;;;;;;;5109931;28;20463;-65
2021/09/19 09:01:13;;;;;;;7.18;2.78;;;;;;;;;;5110628;28;20045;-65
2021/09/19 09:03:40;;;;;;;4.82;2.40;;;;;;;;;;5110912;28;20383;-65
2021/09/19 09:06:08;;;;;;;5.17;2.27;;;;;;;;;;5109105;28;20023;-65
2021/09/19 09:08:34;;;;;;;5.57;2.13;;;;;;;;;;5109053;28;20435;-65
2021/09/19 09:11:01;;;;;;;12.68;2.92;;;;;;;;;;5109741;28;20067;-65
2021/09/19 09:13:28;;;;;;;5.47;2.20;;;;;;;;;;5108409;28;20019;-65
2021/09/19 09:16:00;;;;;;;4.20;1.92;;;;;;;;;;5108472;28;20055;-65
2021/09/19 09:18:31;;;;;;;6.38;1.95;;;;;;;;;;5109889;28;20104;-65
2021/09/19 09:20:59;;;;;;;5.80;2.10;;;;;;;;;;5109127;28;20027;-66
2021/09/19 09:23:27;;;;;;;2.75;1.58;;;;;;;;;;5109342;28;20107;-66
2021/09/19 09:26:13;;;;;;;4.60;1.20;;;;;;;;;;5108937;28;20051;-65
2021/09/19 09:28:47;;;;;;;2.35;0.80;;;;;;;;;;5092921;28;20056;-65
2021/09/19 09:31:14;;;;;;;2.47;1.02;;;;;;;;;;5111148;28;20035;-67
2021/09/19 09:33:53;;;;;;;2.28;1.17;;;;;;;;;;5110849;28;20076;-67
2021/09/19 09:36:29;;;;;;;2.65;0.85;;;;;;;;;;5108794;28;20066;-67
2021/09/19 09:38:55;;;;;;;1.67;1.10;;;;;;;;;;5108624;28;20024;-67
2021/09/19 09:41:21;;;;;;;1.08;0.63;;;;;;;;;;5108866;28;20083;-65
2021/09/19 09:43:47;;;;;;;2.08;0.98;;;;;;;;;;5108243;28;20463;-65
2021/09/19 09:46:13;;;;;;;1.85;0.93;;;;;;;;;;5109050;28;20020;-65
2021/09/19 09:48:39;;;;;;;2.92;1.17;;;;;;;;;;5104010;28;20519;-66
2021/09/19 09:51:24;;;;;;;2.90;1.30;;;;;;;;;;5108777;28;20082;-66
2021/09/19 09:53:54;;;;;;;1.83;0.90;;;;;;;;;;5108618;28;20027;-65
2021/09/19 09:56:20;;;;;;;0.77;0.57;;;;;;;;;;5108878;28;20055;-65
2021/09/19 09:58:46;;;;;;;2.15;1.00;;;;;;;;;;5108583;28;20480;-66
2021/09/19 10:01:12;;;;;;;1.23;0.70;;;;;;;;;;5110801;28;20030;-66
2021/09/19 10:03:39;;;;;;;1.27;0.70;;;;;;;;;;5109709;28;20464;-66
2021/09/19 10:06:05;;;;;;;1.63;0.88;;;;;;;;;;5108794;28;20051;-66
2021/09/19 10:08:31;;;;;;;3.83;1.08;;;;;;;;;;5108632;28;20051;-66
2021/09/19 10:10:57;;;;;;;2.88;1.02;;;;;;;;;;5108469;28;20097;-66
2021/09/19 10:13:23;;;;;;;1.88;0.82;;;;;;;;;;5109240;28;20020;-66
2021/09/19 10:15:49;;;;;;;4.57;1.13;;;;;;;;;;5103049;28;20490;-67
2021/09/19 10:18:17;;;;;;;1.55;0.70;;;;;;;;;;5107514;28;20024;-67
2021/09/19 10:20:44;;;;;;;;;;;;;;;;;;5109089;28;20084;-66
2021/09/19 10:23:10;;;;;;;0.68;0.30;;;;;;;;;;5108257;28;19908;-66
2021/09/19 10:25:37;;;;;;;2.60;0.80;;;;;;;;;;5107765;28;20487;-66
2021/09/19 10:28:24;;;;;;;2.45;0.90;;;;;;;;;;5111268;28;20060;-66
2021/09/19 10:31:08;;;;;;;2.17;0.80;;;;;;;;;;5111671;28;20031;-66
2021/09/19 10:33:41;;;;;;;2.85;1.23;;;;;;;;;;5109723;28;20024;-65
2021/09/19 10:36:26;;;;;;;5.28;1.50;;;;;;;;;;5102870;28;20030;-65
2021/09/19 10:38:52;;;;;;;4.57;1.63;;;;;;;;;;5108088;28;20104;-66
2021/09/19 10:41:23;;;;;;;7.10;1.65;;;;;;;;;;5108403;28;20026;-66
2021/09/19 10:43:53;;;;;;;2.60;1.27;;;;;;;;;;5107286;28;20031;-67
2021/09/19 10:46:37;;;;;;;3.95;1.10;;;;;;;;;;5107978;28;20012;-65
2021/09/19 10:49:13;;;;;;;4.22;1.10;;;;;;;;;;5107951;28;20538;-65
2021/09/19 10:51:58;;;;;;;3.40;1.30;;;;;;;;;;5109415;28;20039;-65
2021/09/19 10:54:46;;;;;;;5.25;1.98;;;;;;;;;;5109910;28;20032;-66
2021/09/19 10:57:36;;;;;;;4.70;1.58;;;;;;;;;;5111548;28;20436;-66
2021/09/19 11:00:09;;;;;;;3.92;1.05;;;;;;;;;;5111863;28;20507;-66
2021/09/19 11:02:39;;;;;;;2.50;0.95;;;;;;;;;;5111518;28;20016;-66
2021/09/19 11:05:24;;;;;;;1.65;0.77;;;;;;;;;;5106453;28;20016;-66
2021/09/19 11:07:50;;;;;;;4.05;1.27;;;;;;;;;;5111635;28;20039;-65
2021/09/19 11:10:16;;;;;;;2.45;0.82;;;;;;;;;;5113580;28;20114;-66
2021/09/19 11:12:44;;;;;;;3.45;1.10;;;;;;;;;;5113854;28;20093;-66
2021/09/19 11:15:12;;;;;;;4.10;1.70;;;;;;;;;;5111447;28;20054;-67
2021/09/19 11:17:45;;;;;;;3.63;1.83;;;;;;;;;;5111204;28;20023;-66
2021/09/19 11:20:14;;;;;;;3.28;1.60;;;;;;;;;;5111661;28;20194;-67
2021/09/19 11:22:41;;;;;;;3.03;1.20;;;;;;;;;;5111317;28;20083;-66
2021/09/19 11:25:07;;;;;;;3.17;1.30;;;;;;;;;;5114011;28;20066;-67
2021/09/19 11:27:34;;;;;;;2.55;1.30;;;;;;;;;;5110708;28;20040;-67
2021/09/19 11:30:00;;;;;;;2.83;1.33;;;;;;;;;;5111166;28;20031;-67
2021/09/19 11:32:28;;;;;;;9.23;1.80;;;;;;;;;;5110717;28;20098;-67
2021/09/19 11:34:54;;;;;;;;;;;;;;;;;;5111906;28;20020;-65
2021/09/19 11:37:20;;;;;;;2.50;1.15;;;;;;;;;;5112547;28;19923;-66
2021/09/19 11:39:46;;;;;;;3.33;1.38;;;;;;;;;;5113949;28;20027;-66
2021/09/19 11:42:14;;;;;;;1.58;1.00;;;;;;;;;;5110451;28;20486;-67
2021/09/19 11:44:44;;;;;;;1.00;0.68;;;;;;;;;;5110450;28;20028;-66
2021/09/19 11:47:12;;;;;;;1.05;0.50;;;;;;;;;;5102736;28;20035;-68
2021/09/19 11:49:40;;;;;;;0.40;0.40;;;;;;;;;;5111126;28;20449;-66
2021/09/19 11:52:06;;;;;;;;;;;;;;;;;;5113462;28;20031;-66
2021/09/19 11:54:32;;;;;;;0.90;0.40;;;;;;;;;;5111801;28;19912;-66
2021/09/19 11:56:59;;;;;;;1.17;0.63;;;;;;;;;;5110929;28;20028;-66
2021/09/19 11:59:25;;;;;;;4.05;0.80;;;;;;;;;;5110789;28;20076;-66
2021/09/19 12:01:51;;;;;;;1.65;0.70;;;;;;;;;;5110479;28;20031;-68
2021/09/19 12:04:17;;;;;;;2.25;0.40;;;;;;;;;;5112396;28;20120;-68
2021/09/19 12:06:44;;;;;;;1.27;0.32;;;;;;;;;;5112691;28;20020;-66
2021/09/19 12:09:14;;;;;;;1.25;0.40;;;;;;;;;;5110340;28;20032;-66
2021/09/19 12:11:45;;;;;;;2.72;0.32;;;;;;;;;;5104378;28;20028;-66
2021/09/19 12:14:13;;;;;;;0.85;0.35;;;;;;;;;;5110067;28;20020;-66
2021/09/19 12:16:39;;;;;;;1.23;0.30;;;;;;;;;;5101958;28;20479;-69
2021/09/19 12:19:05;;;;;;;1.77;0.35;;;;;;;;;;5112552;28;20088;-67
2021/09/19 12:21:34;;;;;;;1.90;0.20;;;;;;;;;;5111636;28;20055;-67
2021/09/19 12:24:00;;;;;;;0.70;0.40;;;;;;;;;;5109702;28;20016;-67
2021/09/19 12:26:27;;;;;;;1.95;0.80;;;;;;;;;;5109980;28;20023;-67
2021/09/19 12:28:57;;;;;;;3.85;1.38;;;;;;;;;;5110080;28;20084;-67
2021/09/19 12:31:34;;;;;;;2.05;1.10;;;;;;;;;;5109529;28;20390;-67
2021/09/19 12:34:01;;;;;;;4.25;0.80;;;;;;;;;;5109611;28;20015;-67
2021/09/19 12:36:28;;;;;;;2.63;0.75;;;;;;;;;;5103416;28;20041;-67
2021/09/19 12:38:54;;;;;;;8.50;0.73;;;;;;;;;;5106400;28;20027;-67
2021/09/19 12:41:20;;;;;;;3.28;1.30;;;;;;;;;;5110064;28;20040;-66
2021/09/19 12:43:47;;;;;;;2.88;0.82;;;;;;;;;;5108289;28;20031;-66
2021/09/19 12:46:14;;;;;;;1.30;0.93;;;;;;;;;;5112207;28;20380;-67
2021/09/19 12:48:40;;;;;;;1.50;0.70;;;;;;;;;;5111340;28;20016;-66
2021/09/19 12:51:06;;;;;;;1.02;0.40;;;;;;;;;;5109404;28;20031;-66
2021/09/19 12:53:33;;;;;;;1.20;0.20;;;;;;;;;;5109855;28;20098;-66
2021/09/19 12:55:59;;;;;;;0.55;0.15;;;;;;;;;;5111764;28;20020;-66
2021/09/19 12:58:26;;;;;;;1.52;0.30;;;;;;;;;;5092799;28;20525;-67
2021/09/19 13:00:52;;;;;;;2.28;0.73;;;;;;;;;;5113140;28;20031;-66
2021/09/19 13:03:22;;;;;;;0.38;0.20;;;;;;;;;;5109429;28;20482;-67
2021/09/19 13:05:48;;;;;;;0.30;0.00;;;;;;;;;;5109425;28;20027;-67
2021/09/19 13:08:14;;;;;;;4.30;1.02;;;;;;;;;;5109240;28;20024;-67
2021/09/19 13:10:40;;;;;;;0.35;0.20;;;;;;;;;;5109670;28;20514;-67
2021/09/19 13:13:07;;;;;;;1.90;0.30;;;;;;;;;;5111753;28;20375;-67
2021/09/19 13:15:33;;;;;;;2.05;0.30;;;;;;;;;;5110203;28;20030;-67
2021/09/19 13:17:59;;;;;;;2.22;0.30;;;;;;;;;;5109297;28;20524;-67
2021/09/19 13:20:26;;;;;;;2.67;1.10;;;;;;;;;;5108953;28;20103;-67
2021/09/19 13:22:52;;;;;;;4.53;0.20;;;;;;;;;;5109432;28;20027;-67
2021/09/19 13:25:18;;;;;;;0.40;0.20;;;;;;;;;;5110800;28;20035;-67
2021/09/19 13:27:44;;;;;;;0.93;0.47;;;;;;;;;;5110843;28;20054;-69
2021/09/19 13:30:11;;;;;;;3.13;0.20;;;;;;;;;;5108827;28;20031;-67
2021/09/19 13:32:37;;;;;;;1.27;0.30;;;;;;;;;;5109044;28;20027;-67
2021/09/19 13:35:03;;;;;;;1.85;0.40;;;;;;;;;;5108819;28;20024;-67
2021/09/19 13:37:29;;;;;;;0.80;0.28;;;;;;;;;;5108841;28;20032;-67
2021/09/19 13:39:55;;;;;;;0.60;0.20;;;;;;;;;;5112259;28;20030;-67
2021/09/19 13:42:21;;;;;;;0.52;0.10;;;;;;;;;;5108548;28;20114;-67
2021/09/19 13:44:47;;;;;;;0.28;0.10;;;;;;;;;;5109100;28;20123;-66
2021/09/19 13:47:13;;;;;;;1.42;0.40;;;;;;;;;;5108659;28;20027;-66
2021/09/19 13:49:40;;;;;;;0.17;0.10;;;;;;;;;;5108527;28;20343;-66
2021/09/19 13:52:06;;;;;;;0.55;0.20;;;;;;;;;;5111316;28;20042;-66
2021/09/19 13:54:32;;;;;;;0.95;0.20;;;;;;;;;;5110147;28;20540;-66
2021/09/19 13:56:58;;;;;;;0.40;0.10;;;;;;;;;;5108778;28;20479;-67
2021/09/19 13:59:24;;;;;;;0.55;0.32;;;;;;;;;;5108426;28;20094;-66
2021/09/19 14:01:50;;;;;;;0.73;0.30;;;;;;;;;;5108290;28;20024;-66
2021/09/19 14:04:17;;;;;;;0.32;0.05;;;;;;;;;;5110169;28;20419;-66
2021/09/19 14:06:44;;;;;;;0.50;0.25;;;;;;;;;;5110898;28;20024;-66
2021/09/19 14:09:10;;;;;;;0.57;0.20;;;;;;;;;;5108788;28;20039;-66
2021/09/19 14:11:37;;;;;;;0.47;0.20;;;;;;;;;;5108271;28;20040;-66
2021/09/19 14:14:03;;;;;;;0.73;0.20;;;;;;;;;;5108240;28;20016;-66
2021/09/19 14:16:29;;;;;;;0.43;0.10;;;;;;;;;;5106674;28;20020;-64
2021/09/19 14:18:56;;;;;;;0.40;0.10;;;;;;;;;;5111821;28;20032;-65
2021/09/19 14:21:22;;;;;;;0.25;0.10;;;;;;;;;;5108333;28;20027;-66
2021/09/19 14:23:48;;;;;;;0.28;0.10;;;;;;;;;;5108214;28;20024;-65
2021/09/19 14:26:15;;;;;;;0.68;0.30;;;;;;;;;;5108006;28;20020;-66
2021/09/19 14:28:41;;;;;;;0.70;0.13;;;;;;;;;;5108392;28;20062;-66
2021/09/19 14:31:07;;;;;;;0.40;0.08;;;;;;;;;;5112305;28;20439;-64
2021/09/19 14:33:33;;;;;;;0.70;0.20;;;;;;;;;;5113730;28;20020;-64
2021/09/19 14:35:59;;;;;;;1.17;0.30;;;;;;;;;;5111907;28;20737;-63
2021/09/19 14:38:24;;;;;;;1.00;0.30;;;;;;;;;;5112500;28;20107;-64
2021/09/19 14:40:50;;;;;;;0.50;0.13;;;;;;;;;;5112331;28;20024;-64
2021/09/19 14:43:16;;;;;;;0.98;0.20;;;;;;;;;;5113656;28;20474;-64